Time,TemperatureF,DewpointF,PressureIn,WindDirection,WindDirectionDegrees,WindSpeedMPH,WindSpeedGustMPH,Humidity,HourlyPrecipIn,Conditions,Clouds,dailyrainin,SoftwareType,DateUTC
2013-01-01 18:58:00,18.3,11.0,29.89,SSW,208,6.0,10.0,73,0.00,,,0.00,weatherlink.com 1.10,2013-01-01 23:58:00,
2013-01-01 19:13:00,18.3,11.0,29.88,South,172,4.0,10.0,72,0.00,,,0.00,weatherlink.com 1.10,2013-01-02 00:13:00,
2013-01-01 19:28:00,18.1,11.0,29.88,WSW,256,5.0,9.0,72,0.00,,,0.00,weatherlink.com 1.10,2013-01-02 00:28:00,
2013-01-01 19:43:00,17.3,10.0,29.87,WSW,240,1.0,9.0,72,0.00,,,0.00,weatherlink.com 1.10,2013-01-02 00:43:00,
2013-01-01 19:59:00,16.7,9.0,29.87,SSE,153,0.0,8.0,72,0.00,,,0.00,weatherlink.com 1.10,2013-01-02 00:59:00,
2013-01-01 20:14:00,16.4,9.0,29.87,South,191,6.0,10.0,73,0.00,,,0.00,weatherlink.com 1.10,2013-01-02 01:14:00,
2013-01-01 20:29:00,16.3,9.0,29.87,SE,145,3.0,7.0,73,0.00,,,0.00,weatherlink.com 1.10,2013-01-02 01:29:00,
2013-01-01 20:44:00,15.8,9.0,29.86,South,187,5.0,8.0,73,0.00,,,0.00,weatherlink.com 1.10,2013-01-02 01:44:00,
2013-01-01 20:59:00,15.2,8.0,29.86,SW,217,5.0,8.0,73,0.00,,,0.00,weatherlink.com 1.10,2013-01-02 01:59:00,
2013-01-01 21:14:00,15.0,8.0,29.86,SW,222,5.0,10.0,73,0.00,,,0.00,weatherlink.com 1.10,2013-01-02 02:14:00,
2013-01-01 21:30:00,15.2,8.0,29.86,South,185,0.0,8.0,73,0.00,,,0.00,weatherlink.com 1.10,2013-01-02 02:30:00,
2013-01-01 21:44:00,15.1,8.0,29.85,West,273,5.0,9.0,72,0.00,,,0.00,weatherlink.com 1.10,2013-01-02 02:44:00,
2013-01-01 21:59:00,15.1,8.0,29.85,SW,226,1.0,9.0,72,0.00,,,0.00,weatherlink.com 1.10,2013-01-02 02:59:00,
2013-01-01 22:14:00,14.8,8.0,29.84,SW,225,6.0,11.0,73,0.00,,,0.00,weatherlink.com 1.10,2013-01-02 03:14:00,
2013-01-01 22:30:00,14.9,7.0,29.84,South,169,0.0,13.0,72,0.00,,,0.00,weatherlink.com 1.10,2013-01-02 03:30:00,
2013-01-01 22:45:00,15.0,7.0,29.84,SSW,197,3.0,12.0,70,0.00,,,0.00,weatherlink.com 1.10,2013-01-02 03:45:00,
2013-01-01 23:00:00,15.0,7.0,29.84,WSW,240,2.0,8.0,69,0.00,,,0.00,weatherlink.com 1.10,2013-01-02 04:00:00,
2013-01-01 23:15:00,15.0,6.0,29.84,SW,233,3.0,7.0,68,0.00,,,0.00,weatherlink.com 1.10,2013-01-02 04:15:00,
2013-01-01 23:30:00,15.0,6.0,29.85,South,176,4.0,9.0,67,0.00,,,0.00,weatherlink.com 1.10,2013-01-02 04:30:00,
2013-01-01 23:45:00,14.9,5.0,29.85,SSW,211,6.0,11.0,66,0.00,,,0.00,weatherlink.com 1.10,2013-01-02 04:45:00,